RCH24 KNPA-KNGU
Flight info
| Callsign | RCH24 |
|---|---|
| Flight time | 1h 27m |
| Altitude | 35000 |
| Route | MXF IRQ RDU KOHLS1 |
| Aircraft | A332/H-SDE3GHIJ2J3J5M1RVWXY/LB2D1 |
Departure
| Time | 2026-05-08 00:42 |
|---|---|
| Airport | Naval Air Station Pensacola Forrest Sherman Field (KNPA) |
Arrival
| Time | 2026-05-08 02:10 |
|---|---|
| Airport | Norfolk Naval Station (Chambers Field) (KNGU) |
| Time | Latitude | Longitude | Altitude | Speed | Heading |
|---|---|---|---|---|---|
| 2026-05-08 00:25 | 30.35139 | -87.31318 | 42 ft | 0 kts | 249° |
| 2026-05-08 00:34 | 30.35141 | -87.31314 | 42 ft | 2 kts | 252° |
| 2026-05-08 00:34 | 30.35144 | -87.31298 | 42 ft | 3 kts | 304° |
| 2026-05-08 00:35 | 30.35137 | -87.31294 | 38 ft | 3 kts | 8° |
| 2026-05-08 00:35 | 30.35117 | -87.31297 | 40 ft | 3 kts | 1° |
| 2026-05-08 00:35 | 30.35102 | -87.31295 | 40 ft | 1 kts | 339° |
| 2026-05-08 00:35 | 30.35097 | -87.31293 | 39 ft | 0 kts | 339° |
| 2026-05-08 00:38 | 30.35100 | -87.31295 | 42 ft | 1 kts | 339° |
| 2026-05-08 00:38 | 30.35110 | -87.31299 | 41 ft | 3 kts | 339° |
| 2026-05-08 00:38 | 30.35140 | -87.31313 | 42 ft | 6 kts | 339° |
| 2026-05-08 00:38 | 30.35182 | -87.31298 | 41 ft | 7 kts | 42° |
| 2026-05-08 00:39 | 30.35216 | -87.31234 | 39 ft | 11 kts | 52° |
| 2026-05-08 00:39 | 30.35290 | -87.31216 | 37 ft | 12 kts | 22° |
| 2026-05-08 00:39 | 30.35337 | -87.31128 | 36 ft | 14 kts | 68° |
| 2026-05-08 00:39 | 30.35376 | -87.31013 | 35 ft | 17 kts | 68° |
| 2026-05-08 00:40 | 30.35425 | -87.30872 | 31 ft | 21 kts | 68° |
| 2026-05-08 00:40 | 30.35478 | -87.30718 | 32 ft | 20 kts | 69° |
| 2026-05-08 00:40 | 30.35527 | -87.30576 | 32 ft | 18 kts | 68° |
| 2026-05-08 00:40 | 30.35585 | -87.30466 | 34 ft | 15 kts | 21° |
| 2026-05-08 00:41 | 30.35688 | -87.30492 | 33 ft | 15 kts | 345° |
| 2026-05-08 00:41 | 30.35788 | -87.30531 | 34 ft | 15 kts | 339° |
| 2026-05-08 00:41 | 30.35864 | -87.30580 | 35 ft | 11 kts | 302° |
| 2026-05-08 00:41 | 30.35850 | -87.30672 | 34 ft | 16 kts | 248° |
| 2026-05-08 00:42 | 30.35743 | -87.30980 | 34 ft | 80 kts | 248° |
| 2026-05-08 00:42 | 30.35425 | -87.31903 | 62 ft | 164 kts | 248° |
| 2026-05-08 00:42 | 30.34932 | -87.33356 | 426 ft | 223 kts | 249° |
| 2026-05-08 00:42 | 30.34330 | -87.35156 | 974 ft | 244 kts | 251° |
| 2026-05-08 00:43 | 30.33905 | -87.37040 | 1530 ft | 241 kts | 272° |
| 2026-05-08 00:43 | 30.34495 | -87.38774 | 2139 ft | 234 kts | 315° |
| 2026-05-08 00:43 | 30.35954 | -87.39492 | 2744 ft | 235 kts | 359° |
| 2026-05-08 00:43 | 30.37469 | -87.38785 | 3267 ft | 247 kts | 43° |
| 2026-05-08 00:44 | 30.38194 | -87.37006 | 3785 ft | 257 kts | 81° |
| 2026-05-08 00:44 | 30.38415 | -87.34889 | 4257 ft | 267 kts | 81° |
| 2026-05-08 00:44 | 30.39000 | -87.32860 | 4883 ft | 274 kts | 58° |
| 2026-05-08 00:44 | 30.40291 | -87.31228 | 5480 ft | 280 kts | 31° |
| 2026-05-08 00:45 | 30.42077 | -87.30402 | 6043 ft | 277 kts | 13° |
| 2026-05-08 00:45 | 30.43903 | -87.29718 | 6707 ft | 276 kts | 15° |
| 2026-05-08 00:45 | 30.45747 | -87.29050 | 7170 ft | 281 kts | 11° |
| 2026-05-08 00:45 | 30.47657 | -87.28444 | 7636 ft | 286 kts | 11° |
| 2026-05-08 00:46 | 30.49584 | -87.27789 | 8168 ft | 290 kts | 13° |
| 2026-05-08 00:46 | 30.51514 | -87.27047 | 8709 ft | 294 kts | 15° |
| 2026-05-08 00:46 | 30.53445 | -87.26224 | 9251 ft | 298 kts | 16° |
| 2026-05-08 00:46 | 30.55402 | -87.25333 | 9638 ft | 311 kts | 17° |
| 2026-05-08 00:47 | 30.57496 | -87.24368 | 9973 ft | 335 kts | 17° |
| 2026-05-08 00:47 | 30.59729 | -87.23333 | 10266 ft | 357 kts | 17° |
| 2026-05-08 00:47 | 30.62098 | -87.22221 | 10552 ft | 377 kts | 18° |
| 2026-05-08 00:47 | 30.64584 | -87.21043 | 10927 ft | 392 kts | 18° |
| 2026-05-08 00:48 | 30.67118 | -87.19830 | 11608 ft | 396 kts | 18° |
| 2026-05-08 00:48 | 30.69683 | -87.18598 | 12339 ft | 400 kts | 18° |
| 2026-05-08 00:48 | 30.72265 | -87.17359 | 13100 ft | 404 kts | 18° |
| 2026-05-08 00:48 | 30.74886 | -87.16103 | 13617 ft | 409 kts | 18° |
| 2026-05-08 00:49 | 30.77520 | -87.14842 | 13751 ft | 411 kts | 18° |
| 2026-05-08 00:49 | 30.80164 | -87.13577 | 13558 ft | 411 kts | 18° |
| 2026-05-08 00:49 | 30.82810 | -87.12310 | 13291 ft | 411 kts | 18° |
| 2026-05-08 00:49 | 30.85457 | -87.11043 | 13337 ft | 411 kts | 18° |
| 2026-05-08 00:50 | 30.88098 | -87.09779 | 13764 ft | 411 kts | 17° |
| 2026-05-08 00:50 | 30.90746 | -87.08512 | 14424 ft | 413 kts | 17° |
| 2026-05-08 00:50 | 30.93408 | -87.07238 | 15152 ft | 415 kts | 16° |
| 2026-05-08 00:50 | 30.96089 | -87.05955 | 15865 ft | 418 kts | 16° |
| 2026-05-08 00:51 | 30.98793 | -87.04661 | 16600 ft | 421 kts | 16° |
| 2026-05-08 00:51 | 31.01506 | -87.03361 | 17347 ft | 423 kts | 15° |
| 2026-05-08 00:51 | 31.04235 | -87.02051 | 18136 ft | 425 kts | 15° |
| 2026-05-08 00:51 | 31.06972 | -87.00737 | 18823 ft | 426 kts | 15° |
| 2026-05-08 00:52 | 31.09733 | -86.99411 | 19369 ft | 432 kts | 15° |
| 2026-05-08 00:52 | 31.12532 | -86.98069 | 19842 ft | 439 kts | 15° |
| 2026-05-08 00:52 | 31.15377 | -86.96705 | 20325 ft | 445 kts | 15° |
| 2026-05-08 00:52 | 31.18254 | -86.95322 | 20803 ft | 450 kts | 15° |
| 2026-05-08 00:53 | 31.21168 | -86.93918 | 21331 ft | 455 kts | 14° |
| 2026-05-08 00:53 | 31.24104 | -86.92501 | 21831 ft | 459 kts | 14° |
| 2026-05-08 00:53 | 31.27064 | -86.91071 | 22335 ft | 463 kts | 14° |
| 2026-05-08 00:53 | 31.30054 | -86.89627 | 22854 ft | 466 kts | 14° |
| 2026-05-08 00:54 | 31.33057 | -86.88174 | 23381 ft | 469 kts | 14° |
| 2026-05-08 00:54 | 31.36086 | -86.86709 | 23863 ft | 472 kts | 13° |
| 2026-05-08 00:54 | 31.39124 | -86.85238 | 24293 ft | 474 kts | 13° |
| 2026-05-08 00:54 | 31.42186 | -86.83755 | 24747 ft | 477 kts | 13° |
| 2026-05-08 00:55 | 31.45261 | -86.82264 | 25195 ft | 479 kts | 13° |
| 2026-05-08 00:55 | 31.48338 | -86.80772 | 25674 ft | 481 kts | 13° |
| 2026-05-08 00:55 | 31.51433 | -86.79269 | 26123 ft | 482 kts | 13° |
| 2026-05-08 00:55 | 31.54539 | -86.77760 | 26595 ft | 484 kts | 13° |
| 2026-05-08 00:56 | 31.57647 | -86.76249 | 27077 ft | 485 kts | 13° |
| 2026-05-08 00:56 | 31.60773 | -86.74730 | 27414 ft | 489 kts | 13° |
| 2026-05-08 00:56 | 31.63902 | -86.73213 | 27653 ft | 496 kts | 13° |
| 2026-05-08 00:56 | 31.67111 | -86.71656 | 27979 ft | 503 kts | 13° |
| 2026-05-08 00:57 | 31.70413 | -86.70052 | 28254 ft | 509 kts | 13° |
| 2026-05-08 00:57 | 31.73663 | -86.68469 | 28528 ft | 515 kts | 13° |
| 2026-05-08 00:57 | 31.76994 | -86.66844 | 28840 ft | 521 kts | 13° |
| 2026-05-08 00:57 | 31.80349 | -86.65204 | 29103 ft | 526 kts | 13° |
| 2026-05-08 00:58 | 31.83753 | -86.63538 | 29372 ft | 531 kts | 13° |
| 2026-05-08 00:58 | 31.87173 | -86.61864 | 29642 ft | 535 kts | 13° |
| 2026-05-08 00:58 | 31.90628 | -86.60170 | 29912 ft | 539 kts | 13° |
| 2026-05-08 00:58 | 31.94097 | -86.58468 | 30169 ft | 542 kts | 13° |
| 2026-05-08 00:59 | 31.97593 | -86.56751 | 30379 ft | 545 kts | 13° |
| 2026-05-08 00:59 | 32.01088 | -86.55033 | 30593 ft | 545 kts | 13° |
| 2026-05-08 00:59 | 32.04583 | -86.53310 | 30857 ft | 543 kts | 13° |
| 2026-05-08 00:59 | 32.08062 | -86.51592 | 31084 ft | 541 kts | 13° |
| 2026-05-08 01:00 | 32.11530 | -86.49881 | 31332 ft | 541 kts | 13° |
| 2026-05-08 01:00 | 32.15004 | -86.48169 | 31600 ft | 540 kts | 13° |
| 2026-05-08 01:00 | 32.18469 | -86.46462 | 31850 ft | 540 kts | 13° |
| 2026-05-08 01:00 | 32.21942 | -86.44751 | 32120 ft | 540 kts | 13° |
| 2026-05-08 01:01 | 32.25408 | -86.43041 | 32364 ft | 540 kts | 13° |
| 2026-05-08 01:01 | 32.28872 | -86.41329 | 32607 ft | 540 kts | 13° |
| 2026-05-08 01:01 | 32.32341 | -86.39614 | 32899 ft | 540 kts | 12° |
| 2026-05-08 01:01 | 32.35804 | -86.37890 | 33111 ft | 542 kts | 14° |
| 2026-05-08 01:02 | 32.39109 | -86.35581 | 33359 ft | 563 kts | 30° |
| 2026-05-08 01:02 | 32.41955 | -86.32316 | 33620 ft | 579 kts | 45° |
| 2026-05-08 01:02 | 32.44165 | -86.28285 | 33878 ft | 591 kts | 60° |
| 2026-05-08 01:02 | 32.45592 | -86.23708 | 34119 ft | 596 kts | 75° |
| 2026-05-08 01:03 | 32.46345 | -86.18871 | 34347 ft | 597 kts | 82° |
| 2026-05-08 01:03 | 32.46971 | -86.14012 | 34572 ft | 598 kts | 80° |
| 2026-05-08 01:03 | 32.47790 | -86.09180 | 34807 ft | 598 kts | 75° |
| 2026-05-08 01:03 | 32.48878 | -86.04441 | 34963 ft | 596 kts | 71° |
| 2026-05-08 01:04 | 32.50199 | -85.99783 | 34988 ft | 596 kts | 67° |
| 2026-05-08 01:04 | 32.53229 | -85.90641 | 34991 ft | 598 kts | 64° |
| 2026-05-08 01:05 | 32.56393 | -85.81514 | 35007 ft | 599 kts | 64° |
| 2026-05-08 01:05 | 32.59497 | -85.72344 | 35013 ft | 600 kts | 65° |
| 2026-05-08 01:06 | 32.62545 | -85.63138 | 35024 ft | 600 kts | 65° |
| 2026-05-08 01:06 | 32.65575 | -85.53910 | 35034 ft | 600 kts | 65° |
| 2026-05-08 01:07 | 32.68601 | -85.44674 | 35036 ft | 600 kts | 65° |
| 2026-05-08 01:07 | 32.71624 | -85.35434 | 35030 ft | 600 kts | 66° |
| 2026-05-08 01:08 | 32.74638 | -85.26200 | 34992 ft | 600 kts | 66° |
| 2026-05-08 01:08 | 32.77625 | -85.17024 | 35007 ft | 600 kts | 66° |
| 2026-05-08 01:09 | 32.80649 | -85.07707 | 35005 ft | 600 kts | 66° |
| 2026-05-08 01:09 | 32.83648 | -84.98437 | 35014 ft | 601 kts | 66° |
| 2026-05-08 01:10 | 32.86640 | -84.89160 | 35016 ft | 601 kts | 66° |
| 2026-05-08 01:10 | 32.89628 | -84.79868 | 35016 ft | 601 kts | 66° |
| 2026-05-08 01:11 | 32.92608 | -84.70574 | 35001 ft | 601 kts | 66° |
| 2026-05-08 01:11 | 32.95583 | -84.61268 | 34994 ft | 601 kts | 66° |
| 2026-05-08 01:12 | 32.98551 | -84.51959 | 34979 ft | 601 kts | 66° |
| 2026-05-08 01:12 | 33.01489 | -84.42711 | 34960 ft | 601 kts | 66° |
| 2026-05-08 01:13 | 33.04441 | -84.33394 | 35024 ft | 601 kts | 66° |
| 2026-05-08 01:13 | 33.07389 | -84.24062 | 34982 ft | 602 kts | 66° |
| 2026-05-08 01:14 | 33.10331 | -84.14722 | 34981 ft | 601 kts | 66° |
| 2026-05-08 01:14 | 33.13266 | -84.05372 | 34973 ft | 601 kts | 66° |
| 2026-05-08 01:15 | 33.16192 | -83.96023 | 34971 ft | 601 kts | 66° |
| 2026-05-08 01:15 | 33.19109 | -83.86676 | 34959 ft | 602 kts | 66° |
| 2026-05-08 01:16 | 33.22026 | -83.77299 | 34968 ft | 602 kts | 66° |
| 2026-05-08 01:16 | 33.24931 | -83.67933 | 34961 ft | 601 kts | 66° |
| 2026-05-08 01:17 | 33.27831 | -83.58551 | 34952 ft | 602 kts | 66° |
| 2026-05-08 01:17 | 33.30722 | -83.49174 | 34953 ft | 602 kts | 66° |
| 2026-05-08 01:18 | 33.33610 | -83.39776 | 34963 ft | 602 kts | 66° |
| 2026-05-08 01:18 | 33.36491 | -83.30371 | 34961 ft | 602 kts | 66° |
| 2026-05-08 01:19 | 33.39366 | -83.20956 | 34978 ft | 602 kts | 66° |
| 2026-05-08 01:19 | 33.42234 | -83.11535 | 34982 ft | 602 kts | 66° |
| 2026-05-08 01:20 | 33.45093 | -83.02111 | 34978 ft | 602 kts | 66° |
| 2026-05-08 01:20 | 33.47945 | -82.92683 | 34981 ft | 602 kts | 67° |
| 2026-05-08 01:21 | 33.50792 | -82.83242 | 34966 ft | 603 kts | 67° |
| 2026-05-08 01:21 | 33.53635 | -82.73785 | 34991 ft | 603 kts | 67° |
| 2026-05-08 01:22 | 33.56469 | -82.64328 | 35013 ft | 604 kts | 67° |
| 2026-05-08 01:22 | 33.59301 | -82.54843 | 35022 ft | 604 kts | 67° |
| 2026-05-08 01:23 | 33.61653 | -82.46946 | 34928 ft | 604 kts | 67° |
| 2026-05-08 01:23 | 33.64471 | -82.37454 | 34927 ft | 604 kts | 67° |
| 2026-05-08 01:24 | 33.67280 | -82.27962 | 34934 ft | 604 kts | 67° |
| 2026-05-08 01:24 | 33.70162 | -82.18496 | 34934 ft | 601 kts | 60° |
| 2026-05-08 01:24 | 33.72272 | -82.14245 | 34949 ft | 588 kts | 47° |
| 2026-05-08 01:25 | 33.74731 | -82.10324 | 34929 ft | 586 kts | 45° |
| 2026-05-08 01:25 | 33.79818 | -82.02666 | 34925 ft | 586 kts | 44° |
| 2026-05-08 01:26 | 33.84933 | -81.95023 | 34923 ft | 586 kts | 44° |
| 2026-05-08 01:26 | 33.90042 | -81.87368 | 34921 ft | 586 kts | 44° |
| 2026-05-08 01:27 | 33.95146 | -81.79701 | 34955 ft | 587 kts | 44° |
| 2026-05-08 01:27 | 34.00240 | -81.72032 | 34932 ft | 586 kts | 44° |
| 2026-05-08 01:28 | 34.05325 | -81.64360 | 34930 ft | 586 kts | 44° |
| 2026-05-08 01:28 | 34.10408 | -81.56677 | 34945 ft | 586 kts | 44° |
| 2026-05-08 01:29 | 34.15492 | -81.48974 | 34905 ft | 587 kts | 44° |
| 2026-05-08 01:29 | 34.20569 | -81.41264 | 34916 ft | 586 kts | 44° |
| 2026-05-08 01:30 | 34.25625 | -81.33569 | 34916 ft | 585 kts | 44° |
| 2026-05-08 01:30 | 34.30680 | -81.25862 | 34922 ft | 585 kts | 44° |
| 2026-05-08 01:31 | 34.35736 | -81.18136 | 34936 ft | 586 kts | 44° |
| 2026-05-08 01:31 | 34.40788 | -81.10397 | 34934 ft | 586 kts | 44° |
| 2026-05-08 01:32 | 34.45835 | -81.02650 | 34918 ft | 585 kts | 44° |
| 2026-05-08 01:32 | 34.50870 | -80.94904 | 34939 ft | 585 kts | 44° |
| 2026-05-08 01:33 | 34.55902 | -80.87147 | 34952 ft | 585 kts | 44° |
| 2026-05-08 01:33 | 34.60935 | -80.79372 | 34963 ft | 586 kts | 44° |
| 2026-05-08 01:34 | 34.65963 | -80.71586 | 34966 ft | 586 kts | 44° |
| 2026-05-08 01:34 | 34.70982 | -80.63797 | 34955 ft | 585 kts | 44° |
| 2026-05-08 01:35 | 34.75991 | -80.56007 | 34931 ft | 585 kts | 44° |
| 2026-05-08 01:35 | 34.80963 | -80.48258 | 34939 ft | 584 kts | 44° |
| 2026-05-08 01:36 | 34.85955 | -80.40459 | 34938 ft | 584 kts | 44° |
| 2026-05-08 01:36 | 34.90952 | -80.32640 | 34946 ft | 588 kts | 44° |
| 2026-05-08 01:37 | 34.95983 | -80.24749 | 34961 ft | 590 kts | 44° |
| 2026-05-08 01:37 | 35.01017 | -80.16831 | 34972 ft | 591 kts | 44° |
| 2026-05-08 01:38 | 35.06039 | -80.08913 | 34972 ft | 590 kts | 45° |
| 2026-05-08 01:38 | 35.11051 | -80.00995 | 34980 ft | 590 kts | 44° |
| 2026-05-08 01:39 | 35.16083 | -79.93031 | 34948 ft | 592 kts | 44° |
| 2026-05-08 01:39 | 35.21113 | -79.85048 | 34944 ft | 593 kts | 44° |
| 2026-05-08 01:40 | 35.26144 | -79.77046 | 34939 ft | 593 kts | 44° |
| 2026-05-08 01:40 | 35.31161 | -79.69047 | 34938 ft | 592 kts | 44° |
| 2026-05-08 01:41 | 35.36193 | -79.61012 | 34965 ft | 597 kts | 44° |
| 2026-05-08 01:41 | 35.41253 | -79.52908 | 34967 ft | 599 kts | 44° |
| 2026-05-08 01:42 | 35.46314 | -79.44783 | 34953 ft | 599 kts | 44° |
| 2026-05-08 01:42 | 35.51360 | -79.36660 | 34952 ft | 598 kts | 45° |
| 2026-05-08 01:43 | 35.56385 | -79.28555 | 34972 ft | 596 kts | 45° |
| 2026-05-08 01:43 | 35.61406 | -79.20440 | 34980 ft | 596 kts | 45° |
| 2026-05-08 01:44 | 35.66421 | -79.12315 | 34980 ft | 596 kts | 45° |
| 2026-05-08 01:44 | 35.71431 | -79.04179 | 34971 ft | 596 kts | 45° |
| 2026-05-08 01:45 | 35.76435 | -78.96033 | 34970 ft | 598 kts | 44° |
| 2026-05-08 01:45 | 35.81464 | -78.87832 | 34947 ft | 601 kts | 45° |
| 2026-05-08 01:46 | 35.86269 | -78.79358 | 34962 ft | 614 kts | 58° |
| 2026-05-08 01:46 | 35.87814 | -78.74405 | 34939 ft | 623 kts | 73° |
| 2026-05-08 01:46 | 35.88563 | -78.69141 | 34944 ft | 625 kts | 83° |
| 2026-05-08 01:47 | 35.89401 | -78.58456 | 34952 ft | 626 kts | 84° |
| 2026-05-08 01:47 | 35.90335 | -78.47802 | 34963 ft | 620 kts | 83° |
| 2026-05-08 01:48 | 35.91848 | -78.32053 | 34714 ft | 614 kts | 83° |
| 2026-05-08 01:48 | 35.92353 | -78.26837 | 34374 ft | 613 kts | 83° |
| 2026-05-08 01:48 | 35.92856 | -78.21618 | 34076 ft | 612 kts | 83° |
| 2026-05-08 01:49 | 35.93357 | -78.16409 | 33695 ft | 612 kts | 83° |
| 2026-05-08 01:49 | 35.93854 | -78.11202 | 33206 ft | 610 kts | 83° |
| 2026-05-08 01:49 | 35.94346 | -78.06025 | 32492 ft | 603 kts | 82° |
| 2026-05-08 01:49 | 35.94832 | -78.00891 | 31793 ft | 601 kts | 82° |
| 2026-05-08 01:50 | 35.95313 | -77.95785 | 31112 ft | 598 kts | 81° |
| 2026-05-08 01:50 | 35.95789 | -77.90709 | 30433 ft | 594 kts | 81° |
| 2026-05-08 01:50 | 35.96261 | -77.85655 | 29744 ft | 589 kts | 81° |
| 2026-05-08 01:50 | 35.96725 | -77.80664 | 29004 ft | 583 kts | 81° |
| 2026-05-08 01:51 | 35.97183 | -77.75722 | 28266 ft | 575 kts | 81° |
| 2026-05-08 01:51 | 35.97900 | -77.70929 | 27552 ft | 560 kts | 68° |
| 2026-05-08 01:51 | 35.99380 | -77.66599 | 26856 ft | 538 kts | 54° |
| 2026-05-08 01:51 | 36.01239 | -77.62653 | 26176 ft | 527 kts | 51° |
| 2026-05-08 01:52 | 36.03128 | -77.58824 | 25493 ft | 519 kts | 51° |
| 2026-05-08 01:52 | 36.04970 | -77.55079 | 24845 ft | 514 kts | 52° |
| 2026-05-08 01:52 | 36.06803 | -77.51316 | 24209 ft | 508 kts | 53° |
| 2026-05-08 01:52 | 36.08605 | -77.47584 | 23542 ft | 502 kts | 53° |
| 2026-05-08 01:53 | 36.10393 | -77.43854 | 22787 ft | 493 kts | 54° |
| 2026-05-08 01:53 | 36.12115 | -77.40246 | 22014 ft | 480 kts | 54° |
| 2026-05-08 01:53 | 36.13789 | -77.36730 | 21253 ft | 470 kts | 54° |
| 2026-05-08 01:53 | 36.15429 | -77.33285 | 20514 ft | 460 kts | 54° |
| 2026-05-08 01:54 | 36.17017 | -77.29944 | 19815 ft | 452 kts | 55° |
| 2026-05-08 01:54 | 36.18614 | -77.26583 | 19107 ft | 443 kts | 55° |
| 2026-05-08 01:54 | 36.20158 | -77.23329 | 18486 ft | 434 kts | 55° |
| 2026-05-08 01:54 | 36.21673 | -77.20131 | 18081 ft | 428 kts | 56° |
| 2026-05-08 01:55 | 36.23162 | -77.16992 | 17985 ft | 428 kts | 56° |
| 2026-05-08 01:55 | 36.24663 | -77.13821 | 17979 ft | 427 kts | 56° |
| 2026-05-08 01:55 | 36.26180 | -77.10611 | 17981 ft | 426 kts | 56° |
| 2026-05-08 01:55 | 36.27677 | -77.07441 | 17981 ft | 426 kts | 56° |
| 2026-05-08 01:56 | 36.29155 | -77.04309 | 17997 ft | 426 kts | 56° |
| 2026-05-08 01:56 | 36.30643 | -77.01150 | 17974 ft | 424 kts | 56° |
| 2026-05-08 01:56 | 36.32151 | -76.97948 | 17966 ft | 423 kts | 55° |
| 2026-05-08 01:56 | 36.33838 | -76.95058 | 17932 ft | 416 kts | 42° |
| 2026-05-08 01:57 | 36.35986 | -76.92747 | 17617 ft | 405 kts | 28° |
| 2026-05-08 01:57 | 36.38317 | -76.90836 | 17004 ft | 400 kts | 25° |
| 2026-05-08 01:57 | 36.40684 | -76.89038 | 16369 ft | 397 kts | 24° |
| 2026-05-08 01:57 | 36.43044 | -76.87277 | 15719 ft | 394 kts | 24° |
| 2026-05-08 01:58 | 36.45349 | -76.85558 | 15097 ft | 380 kts | 24° |
| 2026-05-08 01:58 | 36.47576 | -76.83898 | 14497 ft | 369 kts | 24° |
| 2026-05-08 01:58 | 36.49796 | -76.82248 | 13901 ft | 363 kts | 24° |
| 2026-05-08 01:58 | 36.51926 | -76.80667 | 13306 ft | 361 kts | 24° |
| 2026-05-08 01:59 | 36.54079 | -76.79069 | 12655 ft | 358 kts | 24° |
| 2026-05-08 01:59 | 36.56204 | -76.77488 | 12017 ft | 354 kts | 25° |
| 2026-05-08 01:59 | 36.58302 | -76.75925 | 11430 ft | 350 kts | 25° |
| 2026-05-08 01:59 | 36.60372 | -76.74382 | 10822 ft | 345 kts | 25° |
| 2026-05-08 02:00 | 36.62415 | -76.72859 | 10215 ft | 340 kts | 25° |
| 2026-05-08 02:00 | 36.64421 | -76.71360 | 9633 ft | 329 kts | 25° |
| 2026-05-08 02:00 | 36.66318 | -76.69936 | 9006 ft | 309 kts | 25° |
| 2026-05-08 02:00 | 36.68118 | -76.68586 | 8364 ft | 295 kts | 25° |
| 2026-05-08 02:01 | 36.69836 | -76.67300 | 7742 ft | 282 kts | 25° |
| 2026-05-08 02:01 | 36.71490 | -76.66063 | 7128 ft | 273 kts | 25° |
| 2026-05-08 02:01 | 36.73093 | -76.64865 | 6526 ft | 266 kts | 24° |
| 2026-05-08 02:01 | 36.74661 | -76.63693 | 5914 ft | 259 kts | 25° |
| 2026-05-08 02:02 | 36.76183 | -76.62556 | 5280 ft | 251 kts | 26° |
| 2026-05-08 02:02 | 36.77661 | -76.61450 | 4654 ft | 244 kts | 26° |
| 2026-05-08 02:02 | 36.79096 | -76.60377 | 4006 ft | 238 kts | 27° |
| 2026-05-08 02:02 | 36.80502 | -76.59325 | 3375 ft | 234 kts | 28° |
| 2026-05-08 02:03 | 36.81885 | -76.58290 | 2749 ft | 230 kts | 29° |
| 2026-05-08 02:03 | 36.83256 | -76.57262 | 2215 ft | 230 kts | 30° |
| 2026-05-08 02:03 | 36.84599 | -76.56254 | 2011 ft | 219 kts | 30° |
| 2026-05-08 02:03 | 36.85852 | -76.55310 | 1986 ft | 201 kts | 30° |
| 2026-05-08 02:04 | 36.87000 | -76.54446 | 1995 ft | 185 kts | 30° |
| 2026-05-08 02:04 | 36.88085 | -76.53630 | 1996 ft | 181 kts | 30° |
| 2026-05-08 02:04 | 36.89159 | -76.52823 | 1998 ft | 180 kts | 30° |
| 2026-05-08 02:04 | 36.90228 | -76.52020 | 1998 ft | 179 kts | 30° |
| 2026-05-08 02:05 | 36.91299 | -76.51215 | 2000 ft | 178 kts | 30° |
| 2026-05-08 02:05 | 36.92334 | -76.50431 | 2001 ft | 170 kts | 31° |
| 2026-05-08 02:05 | 36.93246 | -76.49514 | 1996 ft | 169 kts | 45° |
| 2026-05-08 02:05 | 36.93854 | -76.48254 | 1982 ft | 172 kts | 67° |
| 2026-05-08 02:06 | 36.94029 | -76.46764 | 1982 ft | 177 kts | 88° |
| 2026-05-08 02:06 | 36.93950 | -76.45241 | 1975 ft | 170 kts | 91° |
| 2026-05-08 02:06 | 36.93909 | -76.43816 | 1971 ft | 160 kts | 88° |
| 2026-05-08 02:06 | 36.93899 | -76.42901 | 1986 ft | 159 kts | 88° |
| 2026-05-08 02:07 | 36.93874 | -76.41057 | 1774 ft | 158 kts | 89° |
| 2026-05-08 02:07 | 36.93859 | -76.40133 | 1619 ft | 156 kts | 89° |
| 2026-05-08 02:07 | 36.93839 | -76.38803 | 1388 ft | 149 kts | 89° |
| 2026-05-08 02:07 | 36.93822 | -76.37552 | 1190 ft | 142 kts | 89° |
| 2026-05-08 02:08 | 36.93805 | -76.36339 | 1002 ft | 141 kts | 90° |
| 2026-05-08 02:08 | 36.93788 | -76.35117 | 812 ft | 140 kts | 90° |
| 2026-05-08 02:08 | 36.93771 | -76.33902 | 632 ft | 139 kts | 92° |
| 2026-05-08 02:08 | 36.93754 | -76.32684 | 427 ft | 137 kts | 92° |
| 2026-05-08 02:09 | 36.93750 | -76.31493 | 247 ft | 136 kts | 91° |
| 2026-05-08 02:09 | 36.93751 | -76.30315 | 84 ft | 135 kts | 92° |
| 2026-05-08 02:09 | 36.93749 | -76.29190 | 32 ft | 117 kts | 91° |
| 2026-05-08 02:09 | 36.93747 | -76.28322 | 23 ft | 69 kts | 90° |
| 2026-05-08 02:10 | 36.93748 | -76.27911 | 26 ft | 32 kts | 89° |
| 2026-05-08 02:10 | 36.93747 | -76.27717 | 26 ft | 15 kts | 90° |
| 2026-05-08 02:10 | 36.93721 | -76.27605 | 29 ft | 13 kts | 141° |
| 2026-05-08 02:10 | 36.93634 | -76.27608 | 29 ft | 13 kts | 213° |
| 2026-05-08 02:11 | 36.93610 | -76.27717 | 28 ft | 15 kts | 270° |
| 2026-05-08 02:11 | 36.93610 | -76.27858 | 29 ft | 18 kts | 270° |
| 2026-05-08 02:11 | 36.93609 | -76.28022 | 28 ft | 17 kts | 270° |
| 2026-05-08 02:11 | 36.93610 | -76.28172 | 28 ft | 18 kts | 270° |
| 2026-05-08 02:12 | 36.93610 | -76.28341 | 28 ft | 20 kts | 270° |
| 2026-05-08 02:12 | 36.93610 | -76.28526 | 30 ft | 22 kts | 270° |
| 2026-05-08 02:12 | 36.93610 | -76.28669 | 29 ft | 14 kts | 270° |
| 2026-05-08 02:12 | 36.93608 | -76.28790 | 31 ft | 10 kts | 262° |
| 2026-05-08 02:13 | 36.93550 | -76.28843 | 30 ft | 12 kts | 190° |
| 2026-05-08 02:13 | 36.93451 | -76.28847 | 29 ft | 15 kts | 180° |
| 2026-05-08 02:13 | 36.93346 | -76.28847 | 27 ft | 14 kts | 180° |
| 2026-05-08 02:13 | 36.93254 | -76.28842 | 29 ft | 14 kts | 165° |
| 2026-05-08 02:14 | 36.93205 | -76.28769 | 27 ft | 9 kts | 136° |
| 2026-05-08 02:14 | 36.93147 | -76.28736 | 31 ft | 11 kts | 176° |
| 2026-05-08 02:14 | 36.93105 | -76.28783 | 31 ft | 8 kts | 254° |
| 2026-05-08 02:14 | 36.93103 | -76.28820 | 25 ft | 2 kts | 269° |
| 2026-05-08 02:15 | 36.93103 | -76.28828 | 25 ft | 0 kts | 270° |